Terminal Aerodrome Forecast
Issued by NWS Riverton, WY

Home | Current Version | Previous Version | Text Only | Print | Product List | Glossary On
Versions: 1 2 3 4 5 6 7 8 9 10 11 12 13 14 15
000
FTUS45 KRIW 280520
TAFRIW
TAF
KRIW 280520Z 2806/2906 32008KT 6SM FU VCSH SCT080 BKN100
     FM280700 29008KT 6SM FU FEW120
     FM281900 VRB06KT P6SM SCT110
     FM290400 28008KT P6SM FEW120 SCT200=

USA.gov is the U.S. government's official web portal to all federal, state and local government web resources and services.